Time;durP1;ratioP1;P1;durP2;ratioP2;P2;SDS_P1;SDS_P2;PMS_P1;PMS_P2;Temp;Humidity;BMP_temperature;BMP_pressure;BME280_temperature;BME280_humidity;BME280_pressure;Samples;Min_cycle;Max_cycle;Signal;HPM_P1;HPM_P2
2022/12/19 00:02:04;;;;;;;37.72;18.17;;;;;;;;;;5037713;28;20040;-81
2022/12/19 00:04:30;;;;;;;57.22;24.08;;;;;;;;;;5053698;28;20045;-81
2022/12/19 00:06:59;;;;;;;56.28;24.92;;;;;;;;;;5017669;28;20070;-81
2022/12/19 00:09:26;;;;;;;54.13;26.10;;;;;;;;;;5051962;28;20037;-81
2022/12/19 00:11:52;;;;;;;54.03;24.25;;;;;;;;;;5052757;28;20045;-81
2022/12/19 00:14:18;;;;;;;50.67;22.35;;;;;;;;;;5053659;28;20041;-81
2022/12/19 00:16:44;;;;;;;53.55;24.30;;;;;;;;;;5053157;28;20041;-81
2022/12/19 00:19:10;;;;;;;51.10;22.55;;;;;;;;;;5037076;28;20041;-81
2022/12/19 00:21:37;;;;;;;56.65;24.23;;;;;;;;;;5052951;28;20052;-81
2022/12/19 00:24:04;;;;;;;59.58;25.13;;;;;;;;;;5036947;28;20048;-81
2022/12/19 00:26:31;;;;;;;54.40;24.20;;;;;;;;;;5036637;28;20036;-81
2022/12/19 00:29:01;;;;;;;49.35;22.23;;;;;;;;;;5053030;28;20040;-81
2022/12/19 00:31:29;;;;;;;55.30;24.38;;;;;;;;;;5053497;28;20040;-80
2022/12/19 00:33:56;;;;;;;50.97;21.95;;;;;;;;;;5053237;28;20099;-81
2022/12/19 00:36:23;;;;;;;56.75;24.63;;;;;;;;;;5037222;28;20148;-80
2022/12/19 00:38:50;;;;;;;52.88;23.13;;;;;;;;;;5053000;28;20041;-80
2022/12/19 00:41:26;;;;;;;52.58;22.23;;;;;;;;;;5053545;28;20053;-81
2022/12/19 00:44:03;;;;;;;49.92;22.33;;;;;;;;;;5069759;28;20039;-81
2022/12/19 00:46:31;;;;;;;46.17;20.25;;;;;;;;;;5053185;28;20037;-81
2022/12/19 00:48:57;;;;;;;49.92;23.20;;;;;;;;;;5053084;28;20037;-81
2022/12/19 00:51:24;;;;;;;52.90;22.38;;;;;;;;;;5053032;28;20064;-81
2022/12/19 00:53:51;;;;;;;58.40;25.25;;;;;;;;;;5036442;28;20045;-82
2022/12/19 00:56:18;;;;;;;56.47;24.70;;;;;;;;;;5036659;28;20037;-79
2022/12/19 00:58:44;;;;;;;50.45;20.75;;;;;;;;;;5052584;28;20044;-80
2022/12/19 01:01:15;;;;;;;49.65;21.60;;;;;;;;;;5053072;28;20071;-80
2022/12/19 01:03:41;;;;;;;54.50;25.35;;;;;;;;;;5052725;28;20037;-80
2022/12/19 01:06:07;;;;;;;55.05;23.40;;;;;;;;;;5053158;28;20453;-80
2022/12/19 01:08:34;;;;;;;58.00;24.35;;;;;;;;;;5052775;28;20124;-80
2022/12/19 01:11:00;;;;;;;54.80;23.45;;;;;;;;;;5036021;28;20037;-80
2022/12/19 01:13:27;;;;;;;56.63;24.77;;;;;;;;;;5052740;28;20068;-80
2022/12/19 01:15:53;;;;;;;58.63;25.65;;;;;;;;;;5053859;28;20048;-80
2022/12/19 01:18:19;;;;;;;51.38;22.95;;;;;;;;;;5052697;28;20121;-80
2022/12/19 01:20:46;;;;;;;50.10;21.27;;;;;;;;;;5052386;28;20490;-78
2022/12/19 01:23:12;;;;;;;52.83;23.10;;;;;;;;;;5052713;28;20044;-80
2022/12/19 01:25:38;;;;;;;59.47;24.58;;;;;;;;;;5052537;28;20041;-81
2022/12/19 01:28:05;;;;;;;57.58;25.88;;;;;;;;;;5052469;28;20103;-80
2022/12/19 01:30:32;;;;;;;56.47;24.45;;;;;;;;;;5036097;28;20561;-80
2022/12/19 01:32:59;;;;;;;58.33;24.70;;;;;;;;;;5035596;28;20175;-80
2022/12/19 01:35:25;;;;;;;63.10;26.98;;;;;;;;;;5052551;28;20531;-80
2022/12/19 01:37:52;;;;;;;59.88;25.58;;;;;;;;;;5052299;28;20493;-80
2022/12/19 01:40:18;;;;;;;62.63;27.05;;;;;;;;;;5052054;28;20041;-80
2022/12/19 01:42:45;;;;;;;59.95;24.90;;;;;;;;;;5051719;28;20080;-80
2022/12/19 01:45:11;;;;;;;64.13;25.92;;;;;;;;;;5051934;28;20134;-80
2022/12/19 01:47:40;;;;;;;69.43;28.08;;;;;;;;;;5052565;28;20498;-80
2022/12/19 01:50:11;;;;;;;71.35;28.63;;;;;;;;;;5051608;28;20037;-80
2022/12/19 01:52:37;;;;;;;70.68;29.63;;;;;;;;;;5035325;28;20034;-79
2022/12/19 01:55:03;;;;;;;73.65;27.02;;;;;;;;;;5051786;28;20504;-79
2022/12/19 01:57:30;;;;;;;68.03;27.17;;;;;;;;;;5052108;28;20379;-80
2022/12/19 01:59:57;;;;;;;74.13;28.70;;;;;;;;;;5034853;28;20045;-80
2022/12/19 02:02:33;;;;;;;64.40;27.55;;;;;;;;;;5051705;28;20067;-80
2022/12/19 02:05:00;;;;;;;67.88;26.75;;;;;;;;;;5051397;28;20037;-80
2022/12/19 02:07:27;;;;;;;68.70;28.45;;;;;;;;;;5035077;28;20048;-80
2022/12/19 02:09:54;;;;;;;73.50;28.85;;;;;;;;;;5051438;28;20056;-79
2022/12/19 02:12:21;;;;;;;72.07;28.55;;;;;;;;;;5052037;28;20505;-80
2022/12/19 02:14:47;;;;;;;64.65;27.88;;;;;;;;;;5034671;28;20076;-80
2022/12/19 02:17:20;;;;;;;68.10;27.95;;;;;;;;;;5051791;28;20116;-80
2022/12/19 02:20:05;;;;;;;60.78;24.92;;;;;;;;;;5052662;28;20049;-80
2022/12/19 02:22:32;;;;;;;75.13;29.73;;;;;;;;;;5051370;28;20053;-80
2022/12/19 02:25:16;;;;;;;64.78;26.90;;;;;;;;;;5050880;28;20049;-80
2022/12/19 02:27:49;;;;;;;81.03;30.67;;;;;;;;;;5051788;28;20485;-80
2022/12/19 02:30:37;;;;;;;74.40;27.85;;;;;;;;;;5051201;28;20033;-80
2022/12/19 02:33:07;;;;;;;83.10;30.17;;;;;;;;;;5050947;28;20036;-80
2022/12/19 02:35:40;;;;;;;74.75;29.23;;;;;;;;;;5051364;28;20049;-80
2022/12/19 02:38:18;;;;;;;76.22;30.08;;;;;;;;;;5034675;28;20069;-80
2022/12/19 02:41:05;;;;;;;81.82;29.55;;;;;;;;;;5051196;28;20041;-80
2022/12/19 02:43:35;;;;;;;82.65;30.92;;;;;;;;;;5034557;28;20044;-80
2022/12/19 02:46:02;;;;;;;80.68;31.30;;;;;;;;;;5050648;28;20513;-80
2022/12/19 02:48:29;;;;;;;78.97;29.75;;;;;;;;;;5052396;28;20041;-79
2022/12/19 02:50:55;;;;;;;84.60;31.95;;;;;;;;;;5050660;28;20056;-80
2022/12/19 02:53:21;;;;;;;83.22;31.40;;;;;;;;;;5051371;28;20060;-79
2022/12/19 02:55:53;;;;;;;79.95;31.60;;;;;;;;;;5051000;28;20098;-80
2022/12/19 02:58:19;;;;;;;80.32;31.27;;;;;;;;;;5051121;28;20041;-80
2022/12/19 03:00:58;;;;;;;83.40;31.42;;;;;;;;;;5050231;28;20052;-80
2022/12/19 03:03:31;;;;;;;86.32;29.48;;;;;;;;;;5090038;28;20045;-80
2022/12/19 03:06:03;;;;;;;84.45;31.33;;;;;;;;;;5050518;28;20068;-79
2022/12/19 03:08:48;;;;;;;75.57;28.30;;;;;;;;;;5034580;28;20040;-79
2022/12/19 03:11:14;;;;;;;89.40;32.47;;;;;;;;;;5045951;28;20048;-80
2022/12/19 03:13:44;;;;;;;87.80;33.88;;;;;;;;;;5046113;28;20375;-79
2022/12/19 03:16:11;;;;;;;85.85;31.60;;;;;;;;;;5034223;28;20171;-80
2022/12/19 03:18:37;;;;;;;89.63;32.22;;;;;;;;;;5034291;28;20056;-80
2022/12/19 03:21:03;;;;;;;89.07;32.05;;;;;;;;;;5051012;28;20501;-79
2022/12/19 03:23:30;;;;;;;85.10;31.95;;;;;;;;;;5050936;28;20055;-80
2022/12/19 03:26:01;;;;;;;90.30;34.15;;;;;;;;;;5050575;28;20047;-80
2022/12/19 03:28:33;;;;;;;91.30;32.28;;;;;;;;;;5050897;28;20045;-80
2022/12/19 03:31:01;;;;;;;93.60;33.92;;;;;;;;;;5050545;28;20099;-80
2022/12/19 03:33:29;;;;;;;96.95;32.85;;;;;;;;;;5050687;28;20040;-80
2022/12/19 03:35:55;;;;;;;89.95;31.42;;;;;;;;;;5033739;28;20494;-81
2022/12/19 03:38:22;;;;;;;87.88;34.00;;;;;;;;;;5050836;28;20106;-80
2022/12/19 03:40:49;;;;;;;74.15;27.88;;;;;;;;;;5050800;28;20044;-80
2022/12/19 03:43:16;;;;;;;83.90;30.20;;;;;;;;;;5050549;28;20044;-80
2022/12/19 03:46:03;;;;;;;88.53;31.10;;;;;;;;;;5051480;28;20099;-80
2022/12/19 03:48:41;;;;;;;91.35;30.50;;;;;;;;;;5034271;28;20052;-80
2022/12/19 03:51:07;;;;;;;89.50;30.95;;;;;;;;;;5054269;28;20095;-80
2022/12/19 03:53:39;;;;;;;87.55;31.58;;;;;;;;;;5054078;28;20037;-80
2022/12/19 03:56:10;;;;;;;82.20;29.05;;;;;;;;;;5054181;28;20494;-79
2022/12/19 03:58:38;;;;;;;76.15;28.60;;;;;;;;;;5054224;28;20398;-79
2022/12/19 04:01:05;;;;;;;88.05;33.33;;;;;;;;;;5053743;28;20037;-79
2022/12/19 04:03:31;;;;;;;91.13;31.70;;;;;;;;;;5055437;28;20041;-78
2022/12/19 04:05:58;;;;;;;82.57;28.30;;;;;;;;;;5054072;28;20120;-79
2022/12/19 04:08:25;;;;;;;87.72;32.15;;;;;;;;;;5054006;28;20494;-79
2022/12/19 04:11:01;;;;;;;69.35;24.75;;;;;;;;;;5054273;28;20048;-79
2022/12/19 04:13:48;;;;;;;77.72;30.92;;;;;;;;;;5053842;28;20037;-79
2022/12/19 04:16:27;;;;;;;72.50;28.23;;;;;;;;;;5053229;28;20076;-79
2022/12/19 04:18:58;;;;;;;83.93;31.40;;;;;;;;;;5087320;28;20110;-79
2022/12/19 04:21:31;;;;;;;70.55;26.83;;;;;;;;;;5054042;28;20060;-78
2022/12/19 04:24:02;;;;;;;89.18;33.20;;;;;;;;;;5053770;28;20057;-79
2022/12/19 04:26:29;;;;;;;80.20;30.88;;;;;;;;;;5053896;28;20071;-79
2022/12/19 04:28:58;;;;;;;78.57;28.13;;;;;;;;;;5053946;28;20051;-79
2022/12/19 04:31:24;;;;;;;79.13;29.15;;;;;;;;;;5053672;28;20035;-79
2022/12/19 04:33:50;;;;;;;73.57;27.80;;;;;;;;;;5053574;28;20075;-78
2022/12/19 04:36:16;;;;;;;84.32;30.35;;;;;;;;;;5053301;28;20037;-79
2022/12/19 04:38:42;;;;;;;77.57;27.15;;;;;;;;;;5037318;28;20048;-79
2022/12/19 04:41:08;;;;;;;85.43;30.75;;;;;;;;;;5053440;28;20555;-79
2022/12/19 04:43:34;;;;;;;92.38;32.78;;;;;;;;;;5037157;28;20476;-78
2022/12/19 04:46:00;;;;;;;88.50;32.33;;;;;;;;;;5053264;28;20116;-78
2022/12/19 04:48:27;;;;;;;78.18;30.27;;;;;;;;;;5036730;28;20037;-78
2022/12/19 04:50:53;;;;;;;85.13;30.13;;;;;;;;;;5053204;28;20036;-78
2022/12/19 04:53:19;;;;;;;94.13;32.90;;;;;;;;;;5016679;28;20037;-78
2022/12/19 04:55:45;;;;;;;86.82;30.75;;;;;;;;;;5061425;28;20049;-79
2022/12/19 04:58:11;;;;;;;94.47;32.75;;;;;;;;;;5052655;28;20124;-78
2022/12/19 05:00:38;;;;;;;97.97;33.47;;;;;;;;;;5053149;28;20048;-79
2022/12/19 05:03:04;;;;;;;72.30;25.75;;;;;;;;;;5051735;28;20084;-79
2022/12/19 05:05:30;;;;;;;94.35;34.20;;;;;;;;;;5058858;28;20056;-79
2022/12/19 05:07:56;;;;;;;93.70;32.22;;;;;;;;;;5053082;28;20052;-79
2022/12/19 05:10:22;;;;;;;97.80;33.53;;;;;;;;;;5052764;28;20037;-78
2022/12/19 05:12:48;;;;;;;80.00;29.90;;;;;;;;;;5052735;28;20040;-79
2022/12/19 05:15:14;;;;;;;95.55;32.60;;;;;;;;;;5052344;28;20041;-79
2022/12/19 05:17:40;;;;;;;84.65;30.70;;;;;;;;;;5052749;28;20056;-80
2022/12/19 05:20:07;;;;;;;98.40;31.05;;;;;;;;;;5052489;28;20039;-79
2022/12/19 05:22:33;;;;;;;101.53;34.20;;;;;;;;;;5052734;28;20053;-79
2022/12/19 05:24:59;;;;;;;94.93;32.42;;;;;;;;;;5054341;28;20044;-79
2022/12/19 05:27:25;;;;;;;85.20;27.15;;;;;;;;;;5052887;28;20041;-79
2022/12/19 05:29:51;;;;;;;96.13;32.72;;;;;;;;;;5052861;28;20052;-79
2022/12/19 05:32:17;;;;;;;89.75;32.58;;;;;;;;;;5052578;28;20079;-79
2022/12/19 05:34:43;;;;;;;74.45;27.90;;;;;;;;;;5052555;28;20049;-79
2022/12/19 05:37:09;;;;;;;94.47;32.10;;;;;;;;;;5052360;28;20052;-79
2022/12/19 05:39:36;;;;;;;86.95;31.17;;;;;;;;;;5052389;28;20048;-79
2022/12/19 05:42:02;;;;;;;94.30;32.50;;;;;;;;;;5052646;28;20494;-79
2022/12/19 05:44:28;;;;;;;82.30;28.75;;;;;;;;;;5052136;28;20076;-79
2022/12/19 05:46:54;;;;;;;84.85;31.55;;;;;;;;;;5053615;28;20048;-78
2022/12/19 05:49:20;;;;;;;85.55;30.27;;;;;;;;;;5035539;28;20048;-78
2022/12/19 05:51:46;;;;;;;78.85;30.45;;;;;;;;;;5053229;28;20111;-79
2022/12/19 05:54:12;;;;;;;83.55;29.50;;;;;;;;;;5051951;28;20033;-79
2022/12/19 05:56:38;;;;;;;71.18;27.25;;;;;;;;;;5052164;28;20113;-78
2022/12/19 05:59:04;;;;;;;77.35;29.55;;;;;;;;;;5051859;28;20112;-78
2022/12/19 06:01:31;;;;;;;70.50;26.73;;;;;;;;;;5037741;28;20514;-79
2022/12/19 06:03:57;;;;;;;71.05;26.42;;;;;;;;;;5051879;28;20544;-78
2022/12/19 06:06:25;;;;;;;72.90;27.52;;;;;;;;;;5052574;28;20073;-78
2022/12/19 06:08:55;;;;;;;79.45;29.80;;;;;;;;;;5050973;28;20037;-78
2022/12/19 06:11:21;;;;;;;72.30;24.75;;;;;;;;;;5051844;28;20041;-78
2022/12/19 06:13:47;;;;;;;78.15;28.13;;;;;;;;;;5035304;28;20041;-79
2022/12/19 06:16:14;;;;;;;70.50;28.02;;;;;;;;;;5051430;28;20049;-79
2022/12/19 06:18:41;;;;;;;80.85;27.13;;;;;;;;;;5051454;28;20045;-78
2022/12/19 06:21:10;;;;;;;90.63;30.13;;;;;;;;;;5051044;28;20079;-78
2022/12/19 06:23:36;;;;;;;73.05;28.77;;;;;;;;;;5051320;28;20086;-78
2022/12/19 06:26:03;;;;;;;76.00;26.85;;;;;;;;;;5051457;28;20041;-78
2022/12/19 06:28:30;;;;;;;76.75;26.50;;;;;;;;;;5051095;28;20045;-79
2022/12/19 06:30:57;;;;;;;82.97;30.50;;;;;;;;;;5051328;28;20120;-78
2022/12/19 06:33:23;;;;;;;78.75;29.17;;;;;;;;;;5048340;28;20121;-78
2022/12/19 06:35:56;;;;;;;83.53;29.00;;;;;;;;;;5046269;28;20494;-79
2022/12/19 06:38:22;;;;;;;86.45;27.80;;;;;;;;;;5051004;28;20072;-78
2022/12/19 06:43:33;;;;;;;77.43;27.77;;;;;;;;;;5051077;28;20420;-78
2022/12/19 06:45:59;;;;;;;86.82;30.38;;;;;;;;;;5050917;28;20037;-78
2022/12/19 06:48:27;;;;;;;72.75;26.08;;;;;;;;;;5052183;28;20037;-78
2022/12/19 06:50:53;;;;;;;81.50;28.23;;;;;;;;;;5051230;28;20036;-78
2022/12/19 06:53:20;;;;;;;86.18;29.25;;;;;;;;;;5034085;28;20041;-78
2022/12/19 06:55:46;;;;;;;78.25;25.67;;;;;;;;;;5051078;28;20037;-78
2022/12/19 06:58:12;;;;;;;78.95;25.98;;;;;;;;;;5050835;28;20036;-78
2022/12/19 07:00:38;;;;;;;78.55;26.80;;;;;;;;;;5052039;28;20103;-79
2022/12/19 07:03:06;;;;;;;80.40;26.98;;;;;;;;;;5050889;28;20049;-78
2022/12/19 07:05:33;;;;;;;73.70;26.05;;;;;;;;;;5050573;28;20037;-79
2022/12/19 07:07:59;;;;;;;90.22;27.67;;;;;;;;;;5051025;28;20045;-78
2022/12/19 07:10:25;;;;;;;77.15;26.27;;;;;;;;;;5020377;28;20037;-78
2022/12/19 07:12:51;;;;;;;72.95;26.35;;;;;;;;;;5051176;28;20528;-78
2022/12/19 07:15:17;;;;;;;74.43;26.02;;;;;;;;;;5051082;28;20490;-78
2022/12/19 07:17:43;;;;;;;70.50;26.60;;;;;;;;;;5050759;28;20045;-78
2022/12/19 07:20:09;;;;;;;74.07;26.17;;;;;;;;;;5051997;28;20045;-78
2022/12/19 07:22:36;;;;;;;72.70;25.02;;;;;;;;;;5054224;28;20505;-78
2022/12/19 07:25:03;;;;;;;77.07;25.02;;;;;;;;;;5054837;28;20501;-78
2022/12/19 07:27:29;;;;;;;70.05;23.58;;;;;;;;;;5054732;28;20037;-78
2022/12/19 07:30:01;;;;;;;63.47;21.88;;;;;;;;;;5054547;28;20043;-78
2022/12/19 07:32:27;;;;;;;62.47;23.02;;;;;;;;;;5054287;28;20037;-78
2022/12/19 07:34:56;;;;;;;73.28;24.73;;;;;;;;;;5055919;28;20052;-79
2022/12/19 07:37:22;;;;;;;61.33;22.15;;;;;;;;;;5054538;28;20072;-79
2022/12/19 07:39:48;;;;;;;69.53;22.05;;;;;;;;;;5054398;28;20041;-78
2022/12/19 07:42:14;;;;;;;73.40;25.60;;;;;;;;;;5055695;28;20045;-78
2022/12/19 07:44:40;;;;;;;65.93;22.83;;;;;;;;;;5053926;28;20059;-78
2022/12/19 07:47:09;;;;;;;67.90;22.42;;;;;;;;;;5037764;28;20037;-79
2022/12/19 07:49:35;;;;;;;63.97;23.67;;;;;;;;;;5053855;28;20076;-78
2022/12/19 07:52:01;;;;;;;72.95;26.33;;;;;;;;;;5037854;28;20043;-78
2022/12/19 07:54:27;;;;;;;66.00;22.48;;;;;;;;;;5037168;28;20048;-78
2022/12/19 07:56:53;;;;;;;62.63;24.15;;;;;;;;;;5054236;28;20045;-78
2022/12/19 07:59:22;;;;;;;55.83;22.88;;;;;;;;;;5037611;28;20052;-78
2022/12/19 08:01:48;;;;;;;52.15;23.17;;;;;;;;;;5053970;28;20055;-79
2022/12/19 08:04:14;;;;;;;49.50;20.35;;;;;;;;;;5054406;28;20119;-78
2022/12/19 08:06:40;;;;;;;49.88;21.05;;;;;;;;;;5053975;28;20386;-79
2022/12/19 08:09:06;;;;;;;44.75;19.55;;;;;;;;;;5053852;28;20052;-79
2022/12/19 08:11:32;;;;;;;45.50;19.95;;;;;;;;;;5037210;28;20128;-79
2022/12/19 08:13:59;;;;;;;47.35;21.08;;;;;;;;;;5054070;28;20040;-79
2022/12/19 08:16:26;;;;;;;42.50;19.70;;;;;;;;;;5053923;28;20094;-78
2022/12/19 08:18:54;;;;;;;42.53;20.52;;;;;;;;;;5053719;28;20045;-79
2022/12/19 08:21:20;;;;;;;45.25;20.38;;;;;;;;;;5053523;28;20111;-79
2022/12/19 08:23:46;;;;;;;44.88;21.13;;;;;;;;;;5037130;28;20041;-79
2022/12/19 08:26:14;;;;;;;46.05;21.52;;;;;;;;;;5053519;28;20048;-78
2022/12/19 08:28:41;;;;;;;46.72;21.13;;;;;;;;;;5053251;28;20041;-79
2022/12/19 08:31:08;;;;;;;41.40;19.05;;;;;;;;;;5053414;28;20397;-79
2022/12/19 08:33:35;;;;;;;42.85;21.02;;;;;;;;;;5053251;28;20478;-78
2022/12/19 08:36:05;;;;;;;46.63;21.27;;;;;;;;;;5053678;28;20041;-79
2022/12/19 08:38:31;;;;;;;45.30;20.98;;;;;;;;;;5017373;28;20052;-79
2022/12/19 08:40:57;;;;;;;43.83;20.85;;;;;;;;;;5053146;28;20068;-79
2022/12/19 08:43:24;;;;;;;48.40;21.10;;;;;;;;;;5060921;28;20044;-79
2022/12/19 08:45:50;;;;;;;45.20;20.85;;;;;;;;;;5059524;28;20049;-79
2022/12/19 08:48:16;;;;;;;51.67;22.30;;;;;;;;;;5053499;28;20373;-79
2022/12/19 08:50:52;;;;;;;49.53;21.15;;;;;;;;;;5053717;28;20052;-79
2022/12/19 08:53:18;;;;;;;45.80;21.60;;;;;;;;;;5053903;28;20039;-79
2022/12/19 08:55:44;;;;;;;53.22;23.30;;;;;;;;;;5052905;28;20047;-79
2022/12/19 08:58:11;;;;;;;46.63;22.13;;;;;;;;;;5053517;28;20559;-79
2022/12/19 09:00:37;;;;;;;41.58;20.65;;;;;;;;;;5036599;28;20032;-79
2022/12/19 09:03:03;;;;;;;49.85;22.85;;;;;;;;;;5036610;28;20037;-79
2022/12/19 09:05:29;;;;;;;49.13;22.70;;;;;;;;;;5053283;28;20044;-79
2022/12/19 09:07:55;;;;;;;48.28;23.25;;;;;;;;;;5053199;28;20537;-79
2022/12/19 09:10:21;;;;;;;52.25;24.45;;;;;;;;;;5053344;28;20037;-79
2022/12/19 09:12:47;;;;;;;51.88;24.27;;;;;;;;;;5052727;28;20041;-78
2022/12/19 09:15:13;;;;;;;47.30;22.52;;;;;;;;;;5053282;28;20037;-79
2022/12/19 09:17:39;;;;;;;53.20;24.40;;;;;;;;;;5036382;28;20456;-79
2022/12/19 09:20:06;;;;;;;52.08;24.25;;;;;;;;;;5052801;28;20044;-78
2022/12/19 09:22:32;;;;;;;49.67;24.08;;;;;;;;;;5052688;28;20037;-78
2022/12/19 09:25:00;;;;;;;47.40;23.55;;;;;;;;;;5042214;28;20056;-79
2022/12/19 09:27:26;;;;;;;46.58;23.77;;;;;;;;;;5038704;28;20044;-77
2022/12/19 09:29:53;;;;;;;47.33;24.15;;;;;;;;;;5052601;28;20428;-78
2022/12/19 09:32:19;;;;;;;49.42;26.23;;;;;;;;;;5035815;28;20036;-78
2022/12/19 09:34:45;;;;;;;47.58;23.23;;;;;;;;;;5035891;28;20052;-78
2022/12/19 09:37:11;;;;;;;46.95;24.27;;;;;;;;;;5052226;28;20072;-78
2022/12/19 09:39:37;;;;;;;46.25;23.77;;;;;;;;;;5016091;28;20050;-78
2022/12/19 09:42:03;;;;;;;44.13;23.10;;;;;;;;;;5047753;28;20040;-78
2022/12/19 09:44:42;;;;;;;47.08;23.73;;;;;;;;;;5051382;28;20417;-78
2022/12/19 09:47:24;;;;;;;45.40;23.38;;;;;;;;;;5052489;28;20486;-79
2022/12/19 09:49:52;;;;;;;50.42;22.85;;;;;;;;;;5051995;28;20454;-78
2022/12/19 09:52:18;;;;;;;44.03;22.88;;;;;;;;;;5052205;28;20401;-78
2022/12/19 09:54:45;;;;;;;45.40;22.50;;;;;;;;;;5051762;28;20029;-78
2022/12/19 09:57:23;;;;;;;43.65;22.90;;;;;;;;;;5051779;28;20123;-78
2022/12/19 10:00:01;;;;;;;40.58;22.52;;;;;;;;;;5052405;28;20482;-78
2022/12/19 10:02:40;;;;;;;39.88;21.98;;;;;;;;;;5052302;28;20102;-79
2022/12/19 10:05:09;;;;;;;44.15;22.33;;;;;;;;;;5052357;28;20128;-78
2022/12/19 10:07:35;;;;;;;40.72;22.08;;;;;;;;;;5039822;28;20065;-78
2022/12/19 10:10:01;;;;;;;40.03;21.17;;;;;;;;;;5051867;28;20072;-78
2022/12/19 10:12:39;;;;;;;36.08;20.33;;;;;;;;;;5035199;28;20082;-78
2022/12/19 10:15:05;;;;;;;36.03;19.90;;;;;;;;;;5051491;28;20048;-79
2022/12/19 10:17:46;;;;;;;38.22;20.85;;;;;;;;;;5051799;28;20458;-79
2022/12/19 10:20:24;;;;;;;33.60;18.92;;;;;;;;;;5035039;28;20063;-79
2022/12/19 10:22:50;;;;;;;34.13;18.67;;;;;;;;;;5034751;28;20106;-78
2022/12/19 10:25:25;;;;;;;32.30;17.70;;;;;;;;;;5051550;28;20045;-78
2022/12/19 10:27:55;;;;;;;32.63;18.10;;;;;;;;;;5051704;28;20466;-79
2022/12/19 10:30:22;;;;;;;29.30;18.38;;;;;;;;;;5052272;28;20080;-78
2022/12/19 10:33:00;;;;;;;30.83;17.42;;;;;;;;;;5051209;28;20043;-78
2022/12/19 10:35:34;;;;;;;31.77;16.65;;;;;;;;;;5051959;28;20121;-79
2022/12/19 10:38:08;;;;;;;27.60;16.33;;;;;;;;;;5051266;28;20048;-79
2022/12/19 10:40:37;;;;;;;26.38;16.23;;;;;;;;;;5051975;28;20072;-79
2022/12/19 10:43:12;;;;;;;29.77;16.85;;;;;;;;;;5051537;28;20041;-79
2022/12/19 10:45:42;;;;;;;30.15;16.80;;;;;;;;;;5051783;28;20537;-79
2022/12/19 10:48:11;;;;;;;27.27;15.68;;;;;;;;;;5051149;28;20044;-79
2022/12/19 10:50:37;;;;;;;26.88;15.85;;;;;;;;;;5052775;28;20048;-79
2022/12/19 10:53:03;;;;;;;28.23;15.93;;;;;;;;;;5034374;28;20067;-79
2022/12/19 10:55:33;;;;;;;24.38;15.02;;;;;;;;;;5051225;28;20196;-79
2022/12/19 10:58:01;;;;;;;22.60;14.02;;;;;;;;;;5051768;28;20052;-79
2022/12/19 11:00:28;;;;;;;25.02;14.85;;;;;;;;;;5035205;28;20049;-79
2022/12/19 11:03:06;;;;;;;27.90;13.48;;;;;;;;;;5034325;28;20052;-79
2022/12/19 11:05:38;;;;;;;25.60;14.13;;;;;;;;;;5051161;28;20043;-79
2022/12/19 11:08:07;;;;;;;26.08;14.77;;;;;;;;;;5050887;28;20067;-79
2022/12/19 11:10:41;;;;;;;23.38;13.95;;;;;;;;;;5051182;28;20033;-79
2022/12/19 11:13:24;;;;;;;22.52;13.77;;;;;;;;;;5051023;28;20051;-79
2022/12/19 11:15:51;;;;;;;22.52;13.73;;;;;;;;;;5034451;28;20056;-79
2022/12/19 11:18:18;;;;;;;21.83;13.50;;;;;;;;;;5051113;28;20052;-79
2022/12/19 11:21:14;;;;;;;21.77;14.18;;;;;;;;;;5051197;28;20118;-79
2022/12/19 11:23:50;;;;;;;22.42;13.80;;;;;;;;;;5025800;28;20115;-79
2022/12/19 11:26:35;;;;;;;25.08;14.27;;;;;;;;;;5051173;28;20126;-79
2022/12/19 11:29:04;;;;;;;25.58;14.25;;;;;;;;;;5050908;28;20401;-79
2022/12/19 11:31:30;;;;;;;22.55;13.60;;;;;;;;;;5052305;28;20041;-79
2022/12/19 11:34:06;;;;;;;25.08;13.95;;;;;;;;;;5067949;28;20486;-79
2022/12/19 11:36:43;;;;;;;21.63;13.57;;;;;;;;;;5051471;28;20044;-79
2022/12/19 11:39:15;;;;;;;22.23;13.70;;;;;;;;;;5036875;28;20041;-79
2022/12/19 11:41:51;;;;;;;18.40;12.95;;;;;;;;;;5051062;28;20091;-79
2022/12/19 11:44:34;;;;;;;22.73;13.63;;;;;;;;;;5034005;28;20083;-79
2022/12/19 11:47:15;;;;;;;21.50;13.52;;;;;;;;;;5051060;28;20521;-79
2022/12/19 11:49:44;;;;;;;19.10;12.15;;;;;;;;;;5051477;28;20498;-79
2022/12/19 11:52:22;;;;;;;22.05;12.30;;;;;;;;;;5052104;28;20045;-79
2022/12/19 11:55:06;;;;;;;17.50;11.85;;;;;;;;;;5050853;28;20036;-79
2022/12/19 11:57:32;;;;;;;20.08;12.32;;;;;;;;;;5050864;28;20044;-79
2022/12/19 11:59:58;;;;;;;18.30;12.50;;;;;;;;;;5050566;28;20037;-79
2022/12/19 12:02:37;;;;;;;19.48;12.23;;;;;;;;;;5050954;28;20037;-79
2022/12/19 12:05:25;;;;;;;21.83;11.77;;;;;;;;;;5050688;28;20116;-79
2022/12/19 12:08:11;;;;;;;20.23;12.10;;;;;;;;;;5053241;28;20448;-79
2022/12/19 12:10:41;;;;;;;19.88;11.48;;;;;;;;;;5038123;28;20052;-79
2022/12/19 12:13:26;;;;;;;20.15;11.15;;;;;;;;;;5055254;28;20045;-79
2022/12/19 12:15:59;;;;;;;20.38;12.05;;;;;;;;;;5064461;28;20040;-79
2022/12/19 12:18:28;;;;;;;18.90;11.02;;;;;;;;;;5058335;28;20047;-79
2022/12/19 12:21:11;;;;;;;16.60;10.57;;;;;;;;;;5054054;28;20049;-79
2022/12/19 12:23:46;;;;;;;17.52;11.15;;;;;;;;;;5037545;28;20056;-79
2022/12/19 12:26:15;;;;;;;17.30;10.20;;;;;;;;;;5053845;28;20083;-79
2022/12/19 12:28:43;;;;;;;16.33;10.60;;;;;;;;;;5054476;28;20054;-79
2022/12/19 12:31:29;;;;;;;16.55;10.95;;;;;;;;;;5053731;28;20041;-79
2022/12/19 12:34:04;;;;;;;18.00;10.80;;;;;;;;;;5054145;28;20040;-79
2022/12/19 12:36:30;;;;;;;21.20;11.25;;;;;;;;;;5054113;28;20127;-79
2022/12/19 12:39:03;;;;;;;16.75;11.30;;;;;;;;;;5053906;28;20072;-79
2022/12/19 12:44:24;;;;;;;17.40;11.30;;;;;;;;;;5053081;28;20102;-79
2022/12/19 12:47:17;;;;;;;19.67;12.20;;;;;;;;;;5053776;28;20048;-79
2022/12/19 12:49:43;;;;;;;16.83;11.32;;;;;;;;;;5052867;28;20049;-79
2022/12/19 12:52:17;;;;;;;17.95;11.15;;;;;;;;;;5053869;28;20065;-79
2022/12/19 12:54:45;;;;;;;19.92;12.00;;;;;;;;;;5053718;28;20055;-79
2022/12/19 12:57:33;;;;;;;19.35;11.13;;;;;;;;;;5053405;28;20041;-79
2022/12/19 13:00:15;;;;;;;19.05;11.77;;;;;;;;;;5053845;28;20041;-79
2022/12/19 13:02:42;;;;;;;18.30;11.43;;;;;;;;;;5036843;28;20052;-79
2022/12/19 13:05:43;;;;;;;18.73;11.48;;;;;;;;;;5053297;28;20037;-79
2022/12/19 13:08:28;;;;;;;20.13;12.32;;;;;;;;;;4996220;28;20050;-79
2022/12/19 13:10:56;;;;;;;17.30;11.63;;;;;;;;;;5049410;28;20406;-80
2022/12/19 13:13:42;;;;;;;22.95;14.45;;;;;;;;;;5053296;28;20041;-79
2022/12/19 13:16:28;;;;;;;23.38;14.57;;;;;;;;;;5052887;28;20158;-79
2022/12/19 13:19:12;;;;;;;25.90;14.10;;;;;;;;;;5049344;28;20049;-79
2022/12/19 13:21:57;;;;;;;21.02;13.57;;;;;;;;;;5039055;28;20498;-79
2022/12/19 13:24:23;;;;;;;22.95;13.23;;;;;;;;;;5086805;28;20811;-79
2022/12/19 13:26:51;;;;;;;18.83;12.93;;;;;;;;;;5052945;28;20041;-79
2022/12/19 13:29:27;;;;;;;20.63;12.05;;;;;;;;;;5052948;28;20041;-79
2022/12/19 13:32:13;;;;;;;17.92;12.45;;;;;;;;;;5053497;28;20041;-79
2022/12/19 13:34:39;;;;;;;21.02;12.45;;;;;;;;;;5036372;28;20112;-79
2022/12/19 13:37:24;;;;;;;20.45;11.75;;;;;;;;;;5066942;28;20044;-80
2022/12/19 13:39:53;;;;;;;19.63;11.95;;;;;;;;;;5052967;28;20048;-80
2022/12/19 13:45:09;;;;;;;17.80;11.00;;;;;;;;;;5052880;28;20056;-79
2022/12/19 13:47:40;;;;;;;15.95;11.13;;;;;;;;;;5036028;28;20126;-79
2022/12/19 13:50:15;;;;;;;15.27;10.77;;;;;;;;;;5052817;28;20044;-79
2022/12/19 13:52:41;;;;;;;17.40;11.20;;;;;;;;;;5052772;28;20080;-79
2022/12/19 13:55:13;;;;;;;16.92;11.02;;;;;;;;;;5052692;28;20090;-80
2022/12/19 13:57:39;;;;;;;14.32;9.85;;;;;;;;;;5052573;28;20068;-80
2022/12/19 14:00:10;;;;;;;13.95;9.98;;;;;;;;;;5035825;28;20040;-80
2022/12/19 14:02:41;;;;;;;14.38;9.52;;;;;;;;;;5052480;28;20045;-80
2022/12/19 14:05:24;;;;;;;15.63;10.10;;;;;;;;;;5052352;28;20041;-79
2022/12/19 14:07:50;;;;;;;15.25;9.63;;;;;;;;;;5052746;28;20045;-79
2022/12/19 14:10:27;;;;;;;15.40;9.23;;;;;;;;;;5052266;28;20127;-79
2022/12/19 14:15:40;;;;;;;12.63;7.80;;;;;;;;;;5052105;28;20048;-79
2022/12/19 14:18:16;;;;;;;13.38;8.88;;;;;;;;;;5053549;28;20450;-79
2022/12/19 14:20:42;;;;;;;12.23;8.00;;;;;;;;;;5038807;28;20049;-79
2022/12/19 14:23:09;;;;;;;12.88;7.80;;;;;;;;;;5035247;28;20080;-79
2022/12/19 14:25:35;;;;;;;12.20;7.82;;;;;;;;;;5035457;28;20428;-79
2022/12/19 14:28:05;;;;;;;13.13;7.85;;;;;;;;;;5052135;28;20546;-79
2022/12/19 14:30:32;;;;;;;11.07;7.35;;;;;;;;;;5051329;28;20037;-79
2022/12/19 14:33:04;;;;;;;13.10;7.28;;;;;;;;;;5051833;28;20077;-79
2022/12/19 14:35:33;;;;;;;11.38;7.13;;;;;;;;;;5044599;28;20464;-79
2022/12/19 14:38:04;;;;;;;11.73;7.30;;;;;;;;;;5051965;28;20045;-79
2022/12/19 14:40:31;;;;;;;10.98;7.28;;;;;;;;;;5052112;28;20453;-79
2022/12/19 14:45:47;;;;;;;10.85;6.95;;;;;;;;;;5051919;28;20041;-79
2022/12/19 14:48:26;;;;;;;12.52;7.68;;;;;;;;;;5065671;28;20087;-79